createdAt,value
2017-12-13T00:01:27.059Z,79.40
2017-12-13T00:04:01.129Z,78.90
2017-12-13T00:06:35.726Z,80.00
2017-12-13T00:09:09.485Z,79.30
2017-12-13T00:11:43.217Z,79.50
2017-12-13T00:14:16.947Z,79.40
2017-12-13T00:16:50.811Z,79.40
2017-12-13T00:19:24.751Z,79.80
2017-12-13T00:21:58.480Z,79.60
2017-12-13T00:24:32.329Z,80.10
2017-12-13T00:27:06.048Z,80.50
2017-12-13T00:29:39.900Z,80.70
2017-12-13T00:32:13.569Z,80.60
2017-12-13T00:34:47.403Z,80.70
2017-12-13T00:37:21.117Z,80.90
2017-12-13T00:39:55.222Z,80.80
2017-12-13T00:42:28.928Z,80.30
2017-12-13T00:45:02.689Z,79.80
2017-12-13T00:47:39.055Z,79.30
2017-12-13T00:50:12.803Z,79.20
2017-12-13T00:52:46.663Z,79.30
2017-12-13T00:55:20.313Z,78.70
2017-12-13T00:57:55.023Z,78.10
2017-12-13T01:00:28.761Z,77.40
2017-12-13T01:03:02.553Z,77.00
2017-12-13T01:05:36.955Z,76.50
2017-12-13T01:08:10.791Z,76.40
2017-12-13T01:10:45.285Z,76.70
2017-12-13T01:13:19.842Z,76.30
2017-12-13T01:15:53.632Z,76.30
2017-12-13T01:18:27.449Z,76.50
2017-12-13T01:21:01.940Z,76.20
2017-12-13T01:23:35.741Z,76.20
2017-12-13T01:26:10.325Z,76.20
2017-12-13T01:28:44.101Z,76.20
2017-12-13T01:31:17.828Z,75.40
2017-12-13T01:33:52.568Z,75.20
2017-12-13T01:36:26.444Z,75.20
2017-12-13T01:39:00.209Z,75.20
2017-12-13T01:41:34.042Z,74.90
2017-12-13T01:44:08.577Z,74.40
2017-12-13T01:46:43.066Z,73.50
2017-12-13T01:49:16.921Z,73.40
2017-12-13T01:51:50.566Z,73.30
2017-12-13T01:54:24.196Z,73.30
2017-12-13T01:56:58.732Z,74.40
2017-12-13T01:59:32.326Z,74.30
2017-12-13T02:02:06.358Z,74.70
2017-12-13T02:04:40.134Z,74.80
2017-12-13T02:07:14.131Z,74.80
2017-12-13T02:09:47.869Z,75.10
2017-12-13T02:12:21.993Z,75.00
2017-12-13T02:14:56.497Z,76.10
2017-12-13T02:17:30.338Z,76.10
2017-12-13T02:20:04.107Z,76.20
2017-12-13T02:22:37.975Z,76.20
2017-12-13T02:25:11.948Z,75.70
2017-12-13T02:27:45.711Z,75.90
2017-12-13T02:30:19.521Z,75.30
2017-12-13T02:32:54.196Z,74.60
2017-12-13T02:35:27.933Z,74.60
2017-12-13T02:38:01.757Z,74.70
2017-12-13T02:43:49.746Z,74.60
2017-12-13T02:46:28.735Z,74.40
2017-12-13T02:49:02.574Z,74.20
2017-12-13T02:51:53.917Z,74.20
2017-12-13T02:54:40.079Z,74.10
2017-12-13T02:57:14.049Z,74.40
2017-12-13T02:59:48.165Z,74.30
2017-12-13T03:02:21.976Z,73.60
2017-12-13T03:04:57.921Z,73.30
2017-12-13T03:07:31.650Z,72.80
2017-12-13T03:10:10.482Z,72.90
2017-12-13T03:12:44.222Z,72.60
2017-12-13T03:15:20.095Z,72.40
2017-12-13T03:17:56.029Z,72.00
2017-12-13T03:20:29.806Z,71.80
2017-12-13T03:23:03.843Z,72.00
2017-12-13T03:25:38.702Z,71.50
2017-12-13T03:28:12.364Z,71.50
2017-12-13T03:31:05.705Z,71.10
2017-12-13T03:33:39.572Z,71.40
2017-12-13T03:36:18.806Z,71.80
2017-12-13T03:38:52.647Z,71.50
2017-12-13T03:41:27.803Z,71.50
2017-12-13T03:44:01.511Z,71.90
2017-12-13T03:46:37.691Z,71.80
2017-12-13T03:49:12.197Z,71.70
2017-12-13T03:51:48.158Z,71.70
2017-12-13T03:54:22.815Z,71.10
2017-12-13T03:57:00.892Z,71.10
2017-12-13T03:59:34.711Z,70.80
2017-12-13T04:02:11.377Z,70.80
2017-12-13T04:04:45.181Z,70.80
2017-12-13T04:07:21.036Z,70.20
2017-12-13T04:09:55.662Z,70.10
2017-12-13T04:12:36.121Z,70.10
2017-12-13T04:15:09.814Z,70.10
2017-12-13T04:17:46.844Z,70.10
2017-12-13T04:20:20.753Z,70.20
2017-12-13T04:22:55.342Z,69.80
2017-12-13T04:25:29.296Z,69.80
2017-12-13T04:28:03.141Z,69.80
2017-12-13T04:30:42.563Z,69.70
2017-12-13T04:33:16.492Z,69.60
2017-12-13T04:35:52.291Z,69.50
2017-12-13T04:38:26.121Z,69.60
2017-12-13T04:41:03.819Z,70.00
2017-12-13T04:43:37.842Z,70.20
2017-12-13T04:46:33.144Z,70.20
2017-12-13T04:49:26.152Z,70.10
2017-12-13T04:51:59.954Z,69.80
2017-12-13T04:54:51.080Z,69.90
2017-12-13T04:57:25.632Z,69.60
2017-12-13T05:00:05.998Z,69.30
2017-12-13T05:02:39.828Z,69.30
2017-12-13T05:05:13.779Z,69.00
2017-12-13T05:07:49.060Z,68.80
2017-12-13T05:10:23.051Z,68.80
2017-12-13T05:12:57.016Z,69.00
2017-12-13T05:15:36.714Z,68.80
2017-12-13T05:18:11.316Z,68.40
2017-12-13T05:23:46.958Z,68.30
2017-12-13T05:26:21.945Z,68.20
2017-12-13T05:29:03.966Z,68.00
2017-12-13T05:31:38.285Z,68.00
2017-12-13T05:34:13.323Z,67.70
2017-12-13T05:36:47.177Z,67.80
2017-12-13T05:39:21.063Z,67.60
2017-12-13T05:41:54.839Z,67.70
2017-12-13T05:44:29.364Z,67.60
2017-12-13T05:47:03.126Z,68.10
2017-12-13T05:49:37.535Z,68.70
2017-12-13T05:52:11.389Z,68.30
2017-12-13T05:54:50.989Z,68.60
2017-12-13T05:57:43.245Z,68.40
2017-12-13T06:00:22.710Z,68.50
2017-12-13T06:06:01.837Z,68.80
2017-12-13T06:08:36.205Z,69.00
2017-12-13T06:11:11.049Z,69.20
2017-12-13T06:13:51.551Z,69.90
2017-12-13T06:16:25.416Z,69.90
2017-12-13T06:19:08.557Z,70.10
2017-12-13T06:21:42.300Z,71.10
2017-12-13T06:24:16.904Z,69.60
2017-12-13T06:26:51.511Z,70.70
2017-12-13T06:29:29.106Z,69.90
2017-12-13T06:32:03.381Z,70.00
2017-12-13T06:34:43.759Z,72.10
2017-12-13T06:37:17.780Z,71.70
2017-12-13T06:40:09.430Z,71.20
2017-12-13T06:42:43.738Z,71.20
2017-12-13T06:45:19.372Z,70.30
2017-12-13T06:47:58.664Z,69.90
2017-12-13T06:54:01.800Z,70.10
2017-12-13T06:59:40.716Z,70.40
2017-12-13T07:02:18.929Z,70.30
2017-12-13T07:04:53.137Z,70.30
2017-12-13T07:07:31.113Z,71.60
2017-12-13T07:10:04.926Z,71.20
2017-12-13T07:12:48.294Z,70.60
2017-12-13T07:15:28.438Z,70.60
2017-12-13T07:18:06.899Z,70.90
2017-12-13T07:20:40.707Z,71.20
2017-12-13T07:23:16.861Z,71.20
2017-12-13T07:25:52.783Z,70.50
2017-12-13T07:28:26.660Z,70.90
2017-12-13T07:31:01.429Z,72.00
2017-12-13T07:33:35.561Z,72.00
2017-12-13T07:39:23.256Z,72.40
2017-12-13T07:48:49.017Z,73.40
2017-12-13T07:51:43.142Z,74.30
2017-12-13T07:54:47.965Z,74.30
2017-12-13T08:04:06.905Z,75.60
2017-12-13T08:06:40.662Z,75.40
2017-12-13T08:09:15.564Z,76.20
2017-12-13T08:11:50.244Z,75.20
2017-12-13T08:14:25.101Z,75.30
2017-12-13T08:17:00.859Z,75.40
2017-12-13T08:19:34.772Z,75.40
2017-12-13T08:22:08.740Z,75.60
2017-12-13T08:24:44.259Z,75.40
2017-12-13T08:27:20.205Z,75.40
2017-12-13T08:29:54.092Z,74.20
2017-12-13T08:32:27.959Z,71.50
2017-12-13T08:35:04.695Z,71.70
2017-12-13T08:37:39.398Z,71.70
2017-12-13T08:40:14.381Z,70.30
2017-12-13T08:42:48.295Z,70.20
2017-12-13T08:45:22.548Z,69.60
2017-12-13T08:47:56.660Z,69.10
2017-12-13T08:50:31.191Z,67.60
2017-12-13T08:53:05.393Z,67.50
2017-12-13T08:55:40.329Z,68.20
2017-12-13T08:58:14.265Z,68.90
2017-12-13T09:00:55.596Z,67.10
2017-12-13T09:03:29.676Z,67.10
2017-12-13T09:06:06.839Z,66.50
2017-12-13T09:11:37.080Z,66.20
2017-12-13T09:14:10.992Z,67.20
2017-12-13T09:16:45.083Z,64.90
2017-12-13T09:19:18.828Z,65.10
2017-12-13T09:21:54.095Z,64.70
2017-12-13T09:24:52.882Z,64.70
2017-12-13T09:27:27.468Z,64.30
2017-12-13T09:30:02.159Z,64.20
2017-12-13T09:32:35.988Z,64.20
2017-12-13T09:35:09.780Z,63.10
2017-12-13T09:37:43.697Z,63.50
2017-12-13T09:40:17.625Z,64.60
2017-12-13T09:42:51.441Z,63.30
2017-12-13T09:45:26.138Z,62.60
2017-12-13T09:47:59.988Z,62.50
2017-12-13T09:50:34.726Z,62.50
2017-12-13T09:53:09.039Z,62.50
2017-12-13T09:55:42.976Z,62.00
2017-12-13T09:58:17.722Z,61.20
2017-12-13T10:00:51.834Z,60.40
2017-12-13T10:03:25.795Z,60.50
2017-12-13T10:05:59.924Z,57.70
2017-12-13T10:08:34.557Z,54.90
2017-12-13T10:11:11.204Z,54.50
2017-12-13T10:13:45.770Z,53.90
2017-12-13T10:16:19.730Z,53.80
2017-12-13T10:18:56.475Z,52.80
2017-12-13T10:21:30.995Z,52.50
2017-12-13T10:24:05.680Z,52.80
2017-12-13T10:26:39.767Z,52.80
2017-12-13T10:29:14.686Z,51.80
2017-12-13T10:31:49.424Z,52.20
2017-12-13T10:34:23.376Z,51.70
2017-12-13T10:37:01.485Z,51.80
2017-12-13T10:39:39.160Z,51.90
2017-12-13T10:42:14.771Z,50.90
2017-12-13T10:44:48.721Z,50.50
2017-12-13T10:47:24.654Z,50.40
2017-12-13T10:50:05.213Z,49.50
2017-12-13T10:52:41.631Z,49.50
2017-12-13T10:55:18.366Z,49.10
2017-12-13T10:58:02.717Z,49.30
2017-12-13T11:00:38.927Z,48.50
2017-12-13T11:03:15.884Z,48.50
2017-12-13T11:05:51.057Z,48.60
2017-12-13T11:08:27.765Z,48.00
2017-12-13T11:11:07.258Z,47.90
2017-12-13T11:13:44.637Z,48.30
2017-12-13T11:16:19.331Z,49.30
2017-12-13T11:18:56.245Z,49.60
2017-12-13T11:21:30.162Z,50.10
2017-12-13T11:24:04.021Z,50.70
2017-12-13T11:26:39.271Z,50.50
2017-12-13T11:29:16.531Z,50.40
2017-12-13T11:32:08.500Z,50.30
2017-12-13T11:34:42.416Z,50.20
2017-12-13T11:37:16.683Z,51.40
2017-12-13T11:39:51.362Z,51.60
2017-12-13T11:42:25.820Z,51.60
2017-12-13T11:45:01.311Z,50.80
2017-12-13T11:47:38.028Z,51.10
2017-12-13T11:50:14.786Z,51.70
2017-12-13T11:52:55.632Z,51.70
2017-12-13T11:55:31.398Z,52.10
2017-12-13T11:58:06.409Z,52.60
2017-12-13T12:00:40.425Z,52.90
2017-12-13T12:03:15.296Z,53.20
2017-12-13T12:05:50.292Z,53.20
2017-12-13T12:08:26.210Z,53.30
2017-12-13T12:11:00.220Z,53.10
2017-12-13T12:13:34.136Z,53.30
2017-12-13T12:16:09.467Z,53.40
2017-12-13T12:18:45.362Z,53.50
2017-12-13T12:21:19.094Z,53.50
2017-12-13T12:23:53.548Z,53.70
2017-12-13T12:26:28.406Z,53.80
2017-12-13T12:29:04.786Z,53.70
2017-12-13T12:31:38.712Z,53.50
2017-12-13T12:34:12.484Z,53.30
2017-12-13T12:36:46.628Z,53.90
2017-12-13T12:39:21.798Z,53.40
2017-12-13T12:42:18.778Z,53.80
2017-12-13T12:44:57.640Z,54.00
2017-12-13T12:47:34.852Z,53.70
2017-12-13T12:50:08.682Z,54.20
2017-12-13T12:52:52.933Z,54.20
2017-12-13T12:55:26.714Z,54.30
2017-12-13T12:58:02.789Z,54.40
2017-12-13T13:00:36.697Z,54.30
2017-12-13T13:03:19.614Z,54.10
2017-12-13T13:05:55.298Z,54.10
2017-12-13T13:08:33.663Z,54.40
2017-12-13T13:11:18.898Z,54.30
2017-12-13T13:13:52.978Z,54.30
2017-12-13T13:16:34.231Z,54.40
2017-12-13T13:19:08.910Z,53.90
2017-12-13T13:21:42.917Z,53.90
2017-12-13T13:24:16.687Z,54.20
2017-12-13T13:26:51.583Z,54.00
2017-12-13T13:29:25.358Z,54.00
2017-12-13T13:31:59.169Z,54.10
2017-12-13T13:34:32.993Z,54.10
2017-12-13T13:37:08.995Z,54.10
2017-12-13T13:39:43.137Z,54.70
2017-12-13T13:42:16.992Z,55.80
2017-12-13T13:44:51.575Z,56.70
2017-12-13T13:47:27.270Z,57.20
2017-12-13T13:50:01.734Z,57.20
2017-12-13T13:52:48.253Z,57.20
2017-12-13T13:55:22.069Z,57.50
2017-12-13T13:58:14.827Z,57.40
2017-12-13T14:00:48.563Z,57.40
2017-12-13T14:03:23.113Z,56.20
2017-12-13T14:05:56.968Z,56.20
2017-12-13T14:08:30.828Z,56.40
2017-12-13T14:11:06.104Z,56.30
2017-12-13T14:13:39.857Z,56.50
2017-12-13T14:16:20.417Z,56.20
2017-12-13T14:18:54.218Z,56.20
2017-12-13T14:21:28.084Z,55.80
2017-12-13T14:24:02.682Z,56.40
2017-12-13T14:26:36.628Z,56.40
2017-12-13T14:29:12.944Z,55.60
2017-12-13T14:31:48.612Z,55.80
2017-12-13T14:34:23.767Z,55.80
2017-12-13T14:36:58.097Z,55.20
2017-12-13T14:39:32.126Z,54.80
2017-12-13T14:42:05.842Z,54.70
2017-12-13T14:44:41.566Z,54.40
2017-12-13T14:47:15.436Z,54.40
2017-12-13T14:49:49.417Z,54.30
2017-12-13T14:52:23.871Z,54.30
2017-12-13T14:54:57.971Z,54.10
2017-12-13T14:57:31.699Z,54.00
2017-12-13T15:00:05.736Z,54.90
2017-12-13T15:02:40.842Z,54.50
2017-12-13T15:05:19.543Z,55.20
2017-12-13T15:07:53.462Z,55.40
2017-12-13T15:10:28.471Z,55.70
2017-12-13T15:13:03.454Z,55.70
2017-12-13T15:15:37.230Z,56.30
2017-12-13T15:18:11.132Z,57.70
2017-12-13T15:20:44.945Z,59.40
2017-12-13T15:26:33.633Z,60.30
2017-12-13T15:29:10.635Z,60.90
2017-12-13T15:31:45.449Z,61.30
2017-12-13T15:34:20.084Z,61.30
2017-12-13T15:36:56.031Z,62.00
2017-12-13T15:39:30.710Z,65.00
2017-12-13T15:42:04.780Z,64.20
2017-12-13T15:44:38.733Z,66.50
2017-12-13T15:47:14.529Z,71.10
2017-12-13T15:49:48.472Z,71.00
2017-12-13T15:52:22.448Z,73.00
2017-12-13T15:54:56.171Z,74.40
2017-12-13T15:57:30.106Z,73.80
2017-12-13T16:00:04.047Z,74.90
2017-12-13T16:02:43.234Z,75.30
2017-12-13T16:05:17.026Z,76.90
2017-12-13T16:07:52.102Z,77.60
2017-12-13T16:10:26.186Z,77.60
2017-12-13T16:13:00.690Z,79.90
2017-12-13T16:15:34.820Z,79.90
2017-12-13T16:18:09.230Z,80.90
2017-12-13T16:23:45.911Z,81.70
2017-12-13T16:26:20.729Z,82.90
2017-12-13T16:28:55.760Z,82.60
2017-12-13T16:31:31.123Z,83.40
2017-12-13T16:34:04.958Z,83.40
2017-12-13T16:36:43.777Z,83.40
2017-12-13T16:39:22.652Z,83.60
2017-12-13T16:41:56.490Z,83.60
2017-12-13T16:44:31.528Z,83.50
2017-12-13T16:47:05.388Z,83.40
2017-12-13T16:49:40.095Z,82.90
2017-12-13T16:52:14.356Z,82.90
2017-12-13T16:54:59.366Z,83.00
2017-12-13T16:57:33.367Z,83.00
2017-12-13T17:00:31.550Z,82.90
2017-12-13T17:03:05.601Z,82.50
2017-12-13T17:05:39.634Z,83.00
2017-12-13T17:08:13.445Z,83.40
2017-12-13T17:10:49.164Z,83.10
2017-12-13T17:13:22.938Z,83.10
2017-12-13T17:16:00.054Z,83.20
2017-12-13T17:18:34.068Z,83.20
2017-12-13T17:21:07.992Z,83.10
2017-12-13T17:23:42.514Z,82.90
2017-12-13T17:26:18.060Z,83.30
2017-12-13T17:28:53.798Z,83.20
2017-12-13T17:31:27.700Z,83.20
2017-12-13T17:34:03.392Z,83.60
2017-12-13T17:36:37.885Z,83.70
2017-12-13T17:39:11.659Z,83.70
2017-12-13T17:41:46.843Z,84.30
2017-12-13T17:44:20.564Z,84.30
2017-12-13T17:46:57.006Z,84.30
2017-12-13T17:49:31.878Z,84.50
2017-12-13T17:52:06.420Z,84.40
2017-12-13T17:54:42.181Z,84.80
2017-12-13T17:57:16.907Z,84.70
2017-12-13T17:59:50.749Z,84.50
2017-12-13T18:02:25.416Z,84.90
2017-12-13T18:05:00.438Z,84.80
2017-12-13T18:07:35.596Z,84.50
2017-12-13T18:10:09.346Z,84.90
2017-12-13T18:12:44.113Z,84.90
2017-12-13T18:15:18.764Z,84.70
2017-12-13T18:17:52.652Z,84.60
2017-12-13T18:20:26.477Z,84.70
2017-12-13T18:23:00.768Z,84.60
2017-12-13T18:25:35.693Z,84.30
2017-12-13T18:28:09.542Z,84.80
2017-12-13T18:30:44.227Z,84.80
2017-12-13T18:33:18.186Z,84.70
2017-12-13T18:35:52.179Z,84.20
2017-12-13T18:38:34.398Z,84.60
2017-12-13T18:41:08.339Z,85.10
2017-12-13T18:43:49.912Z,84.60
2017-12-13T18:46:23.880Z,84.60
2017-12-13T18:49:02.122Z,84.50
2017-12-13T18:51:35.989Z,84.40
2017-12-13T18:54:23.238Z,84.30
2017-12-13T18:56:57.271Z,84.40
2017-12-13T18:59:38.318Z,84.20
2017-12-13T19:02:12.152Z,84.30
2017-12-13T19:04:54.099Z,84.30
2017-12-13T19:07:30.052Z,84.20
2017-12-13T19:10:03.911Z,84.00
2017-12-13T19:12:38.199Z,84.00
2017-12-13T19:15:14.536Z,84.10
2017-12-13T19:17:55.131Z,84.10
2017-12-13T19:20:29.007Z,84.00
2017-12-13T19:23:05.824Z,83.90
2017-12-13T19:25:43.651Z,83.80
2017-12-13T19:28:19.119Z,83.30
2017-12-13T19:30:53.836Z,83.30
2017-12-13T19:33:35.147Z,83.20
2017-12-13T19:36:13.038Z,82.80
2017-12-13T19:38:47.184Z,82.60
2017-12-13T19:41:31.748Z,82.20
2017-12-13T19:44:09.149Z,82.00
2017-12-13T19:46:45.952Z,81.90
2017-12-13T19:49:19.777Z,81.80
2017-12-13T19:51:53.666Z,81.90
2017-12-13T19:54:28.259Z,81.40
2017-12-13T19:57:02.416Z,81.40
2017-12-13T19:59:36.610Z,81.20
2017-12-13T20:02:11.234Z,80.80
2017-12-13T20:04:45.303Z,80.80
2017-12-13T20:07:20.007Z,80.90
2017-12-13T20:09:54.588Z,80.70
2017-12-13T20:12:28.623Z,80.30
2017-12-13T20:15:15.314Z,79.80
2017-12-13T20:17:50.010Z,80.30
2017-12-13T20:20:24.070Z,79.60
2017-12-13T20:22:58.791Z,79.60
2017-12-13T20:25:33.924Z,79.50
2017-12-13T20:28:10.387Z,79.60
2017-12-13T20:30:45.468Z,79.60
2017-12-13T20:33:19.452Z,80.40
2017-12-13T20:35:53.405Z,80.30
2017-12-13T20:38:28.058Z,80.30
2017-12-13T20:41:04.765Z,80.60
2017-12-13T20:43:40.088Z,80.90
2017-12-13T20:46:14.014Z,81.40
2017-12-13T20:48:47.905Z,81.70
2017-12-13T20:51:24.140Z,81.50
2017-12-13T20:53:58.066Z,81.50
2017-12-13T20:56:34.104Z,81.60
2017-12-13T20:59:08.221Z,81.60
2017-12-13T21:01:42.170Z,82.20
2017-12-13T21:04:16.345Z,83.10
2017-12-13T21:06:50.178Z,83.20
2017-12-13T21:09:24.315Z,84.00
2017-12-13T21:11:58.895Z,83.90
2017-12-13T21:14:32.924Z,83.90
2017-12-13T21:17:06.787Z,84.10
2017-12-13T21:19:40.787Z,84.20
2017-12-13T21:22:14.712Z,84.00
2017-12-13T21:24:50.128Z,84.50
2017-12-13T21:27:23.945Z,84.40
2017-12-13T21:29:58.171Z,84.90
2017-12-13T21:32:32.173Z,84.30
2017-12-13T21:35:07.287Z,84.30
2017-12-13T21:37:41.115Z,84.40
2017-12-13T21:40:17.958Z,84.60
2017-12-13T21:42:52.586Z,84.60
2017-12-13T21:45:26.650Z,84.60
2017-12-13T21:48:01.711Z,84.90
2017-12-13T21:50:36.376Z,87.00
2017-12-13T21:53:10.347Z,86.30
2017-12-13T21:55:44.144Z,87.20
2017-12-13T21:58:21.846Z,88.30
2017-12-13T22:00:55.633Z,88.20
2017-12-13T22:03:30.330Z,89.20
2017-12-13T22:06:05.257Z,89.60
2017-12-13T22:08:39.237Z,89.60
2017-12-13T22:11:13.367Z,89.10
2017-12-13T22:13:48.197Z,90.00
2017-12-13T22:16:22.053Z,90.00
2017-12-13T22:18:56.146Z,90.50
2017-12-13T22:21:32.332Z,90.50
2017-12-13T22:24:06.173Z,90.70
2017-12-13T22:26:40.294Z,90.70
2017-12-13T22:29:14.508Z,90.90
2017-12-13T22:31:48.382Z,91.10
2017-12-13T22:34:25.992Z,90.80
2017-12-13T22:37:01.212Z,90.90
2017-12-13T22:39:35.331Z,90.90
2017-12-13T22:42:09.104Z,90.90
2017-12-13T22:44:44.306Z,90.70
2017-12-13T22:47:18.362Z,90.70
2017-12-13T22:49:52.346Z,90.80
2017-12-13T22:52:27.509Z,90.70
2017-12-13T22:55:03.004Z,91.20
2017-12-13T22:57:39.109Z,91.00
2017-12-13T23:00:13.219Z,91.30
2017-12-13T23:02:47.381Z,90.80
2017-12-13T23:05:21.569Z,90.80
2017-12-13T23:07:55.348Z,90.90
2017-12-13T23:10:33.125Z,90.90
2017-12-13T23:13:06.966Z,90.90
2017-12-13T23:15:41.670Z,90.90
2017-12-13T23:18:15.647Z,90.60
2017-12-13T23:24:08.438Z,91.00
2017-12-13T23:26:42.264Z,91.00
2017-12-13T23:29:17.238Z,91.10
2017-12-13T23:31:51.450Z,91.10
2017-12-13T23:34:25.264Z,91.20
2017-12-13T23:37:07.867Z,91.10
2017-12-13T23:39:41.676Z,91.10
2017-12-13T23:42:16.452Z,91.20
2017-12-13T23:44:50.702Z,91.20
2017-12-13T23:47:36.637Z,91.30
2017-12-13T23:50:10.451Z,91.30
2017-12-13T23:53:02.483Z,91.50
2017-12-13T23:55:36.237Z,91.60
2017-12-13T23:58:14.080Z,91.60
